Terminal Aerodrome Forecast
Issued by NWS

Home | Current Version | Previous Version | Text Only | Print | Product List | Glossary On
Versions: 1 2 3 4 5 6 7 8 9 10 11 12 13 14 15 16 17
000
FTUS46 KPDT 171720
TAFDLS
TAF
KDLS 171720Z 1718/1818 VRB04KT 5SM BR OVC050
     FM172300 VRB05KT 3SM -FZRASN BR OVC030
     FM180500 VRB05KT 2SM -FZRA BR OVC025=

USA.gov is the U.S. government's official web portal to all federal, state and local government web resources and services.